Bitola, Macedonia
Current Conditions -  °F | °C
As of 4:50 AM on Tuesday 27 Jan 2015 (Local Time) from LGKZ Reporting Station
NA  
Wind Chill: 26°   Ceiling: NA
Heat Index: 34°   Visibility: NA
Dew Point: 32°   Wind: 9mph
Humidity: 93%   Direction: 330°NNW
Pressure: 29.94"   Gusts: NA
Location:  41.04°N, 21.34°E
Report Text: LGKZ 270250Z AUTO 33008KT //// // ////// 01/00 Q1014 RE//
Loading
Personal Weather Stations






























Interactive Weather Map New forecast layout! Learn more

10-Day Weather Forecast

Advertisements
Track Severe Weather on mobile